Impacts TAF Board INFO
FOR SITUATIONAL AWARENESS. NOT TO BE USED FOR FLIGHT PLANNING PURPOSES.
IDs:

KCVG - Cincinnati Intl, KY, US

Issued at 0158 UTC 17 Aug 2018
Updated at 0524 UTC 17 Aug 2018
Potential Impact None Slight Moderate High
Time<<17/18Z 17/19Z 17/20Z 17/21Z 17/22Z 17/23Z 18/00Z 18/01Z 18/02Z 18/03Z 18/04Z 18/05Z 18/06Z>>
Type PRVL PRVL PRVL PRVL PRVL PRVL PRVL PRVL PRVL PRVL PRVL PRVL
VIS >6 >6 >6 >6 >6 >6 >6 >6 >6 >6 >6 >6
CIG 35 35 35 35 35 35 35 35 35 35 35 35
Cover BKN BKN BKN BKN BKN BKN BKN BKN BKN BKN BKN BKN
FltCat VFR VFR VFR VFR VFR VFR VFR VFR VFR VFR VFR VFR
WX VCTS VCTS VCTS VCTS VCTS VCTS VCTS VCSH VCSH VCSH VCSH VCSH
WDir 220 220 220 220 220 220 220 230 230 230 230 230
WSpd 10 10 10 10 10 10 10 4 4 4 4 4
WGst -- -- -- -- -- -- -- -- -- -- -- --

Raw TAF
KCVG 170158Z 1702/1806 19007KT P6SM VCTS FEW029CB BKN060
  TEMPO 1702/1706 2SM TSRA BR OVC029CB
  FM170800 21006KT 5SM BR OVC012
  FM171500 21008KT P6SM BKN025
  FM171800 22010KT P6SM VCTS BKN035CB
  FM180100 23004KT P6SM VCSH BKN035


METAR Board
Radar Display
Forecast Discussion

FOR SITUATIONAL AWARENESS. NOT TO BE USED FOR FLIGHT PLANNING PURPOSES.